Time;durP1;ratioP1;P1;durP2;ratioP2;P2;SDS_P1;SDS_P2;PMS_P1;PMS_P2;Temp;Humidity;BMP_temperature;BMP_pressure;BME280_temperature;BME280_humidity;BME280_pressure;Samples;Min_cycle;Max_cycle;Signal;HPM_P1;HPM_P2
2022/07/24 00:00:15;;;;;;;4.72;4.22;;;17.60;99.90;;;;;;5019469;28;20115;-77
2022/07/24 00:02:42;;;;;;;8.80;4.18;;;16.90;99.90;;;;;;5036295;28;20057;-77
2022/07/24 00:05:08;;;;;;;5.15;4.00;;;17.20;99.90;;;;;;5037021;28;20054;-77
2022/07/24 00:07:35;;;;;;;5.95;4.07;;;;;;;;;;5002622;28;20061;-77
2022/07/24 00:10:03;;;;;;;7.53;4.47;;;17.20;99.90;;;;;;5036927;28;20058;-77
2022/07/24 00:12:28;;;;;;;4.82;4.10;;;17.10;99.90;;;;;;5019201;28;20092;-77
2022/07/24 00:14:54;;;;;;;6.32;3.90;;;17.00;99.90;;;;;;5002761;28;20095;-78
2022/07/24 00:17:19;;;;;;;5.28;4.00;;;17.10;99.90;;;;;;5019615;28;20132;-77
2022/07/24 00:19:45;;;;;;;5.30;4.25;;;17.10;99.90;;;;;;5018916;28;20077;-77
2022/07/24 00:22:11;;;;;;;5.13;4.22;;;17.10;99.90;;;;;;5036988;28;20107;-77
2022/07/24 00:24:36;;;;;;;7.57;4.20;;;17.00;99.90;;;;;;5018815;28;20490;-77
2022/07/24 00:27:02;;;;;;;5.43;4.10;;;16.90;99.90;;;;;;5036992;28;20093;-77
2022/07/24 00:29:28;;;;;;;5.68;4.07;;;17.10;99.90;;;;;;5018835;28;20049;-77
2022/07/24 00:31:53;;;;;;;6.70;4.28;;;17.10;99.90;;;;;;5036719;28;20053;-77
2022/07/24 00:34:19;;;;;;;5.53;4.40;;;16.90;99.90;;;;;;5036714;28;20080;-77
2022/07/24 00:36:45;;;;;;;5.22;4.05;;;17.00;99.90;;;;;;5018853;28;20132;-77
2022/07/24 00:39:11;;;;;;;7.05;3.90;;;18.30;99.90;;;;;;5036822;28;20053;-77
2022/07/24 00:41:37;;;;;;;6.70;4.22;;;16.90;99.90;;;;;;5018964;28;20049;-77
2022/07/24 00:44:10;;;;;;;10.00;4.40;;;16.90;99.90;;;;;;5036419;28;20523;-78
2022/07/24 00:46:41;;;;;;;6.68;4.30;;;17.00;99.90;;;;;;5018638;28;20045;-77
2022/07/24 00:49:09;;;;;;;6.95;4.32;;;17.20;99.90;;;;;;5018581;28;20061;-77
2022/07/24 00:51:35;;;;;;;6.05;4.43;;;17.10;99.90;;;;;;5018820;28;20495;-77
2022/07/24 00:54:05;;;;;;;8.18;4.22;;;18.00;99.90;;;;;;5035946;28;20065;-77
2022/07/24 00:56:30;;;;;;;4.78;4.18;;;17.10;99.90;;;;;;5036030;28;20447;-77
2022/07/24 00:58:57;;;;;;;5.25;4.30;;;16.90;99.90;;;;;;5002204;28;20045;-77
2022/07/24 01:01:26;;;;;;;6.90;4.47;;;;;;;;;;5031194;28;20140;-77
2022/07/24 01:03:52;;;;;;;7.88;4.53;;;17.00;99.90;;;;;;5019125;28;20092;-78
2022/07/24 01:06:19;;;;;;;9.07;4.60;;;17.10;99.90;;;;;;5006068;28;20057;-77
2022/07/24 01:08:45;;;;;;;8.50;4.70;;;17.10;99.90;;;;;;5028676;28;20062;-77
2022/07/24 01:11:11;;;;;;;6.97;4.43;;;19.00;99.90;;;;;;5017380;28;20076;-78
2022/07/24 01:13:38;;;;;;;5.57;4.47;;;16.90;99.90;;;;;;5018139;28;20483;-77
2022/07/24 01:16:04;;;;;;;6.85;4.72;;;16.80;99.90;;;;;;5017882;28;20057;-77
2022/07/24 01:18:30;;;;;;;8.50;4.55;;;17.00;99.90;;;;;;5017781;28;20088;-77
2022/07/24 01:20:55;;;;;;;13.93;4.88;;;16.30;99.90;;;;;;5035544;28;20053;-77
2022/07/24 01:23:22;;;;;;;6.60;4.80;;;16.40;99.90;;;;;;5017893;28;20503;-78
2022/07/24 01:25:48;;;;;;;5.30;4.70;;;;;;;;;;5035580;28;20045;-77
2022/07/24 01:28:14;;;;;;;6.05;4.90;;;16.70;99.90;;;;;;5017379;28;20065;-77
2022/07/24 01:30:40;;;;;;;6.25;4.55;;;18.60;99.90;;;;;;5018063;28;20451;-77
2022/07/24 01:33:05;;;;;;;8.15;4.90;;;16.70;99.90;;;;;;5035296;28;20045;-77
2022/07/24 01:35:31;;;;;;;8.18;4.80;;;16.70;99.90;;;;;;5017599;28;20107;-77
2022/07/24 01:37:57;;;;;;;12.60;5.35;;;17.20;99.90;;;;;;5035493;28;20056;-77
2022/07/24 01:40:22;;;;;;;6.60;4.80;;;16.70;99.90;;;;;;5035372;28;20045;-77
2022/07/24 01:42:48;;;;;;;7.75;4.80;;;17.50;99.90;;;;;;5034541;28;20404;-77
2022/07/24 01:45:14;;;;;;;8.27;5.07;;;18.10;99.90;;;;;;5017176;28;20099;-77
2022/07/24 01:47:41;;;;;;;7.50;5.15;;;16.50;99.90;;;;;;5017290;28;20053;-77
2022/07/24 01:50:07;;;;;;;9.30;5.50;;;16.50;99.90;;;;;;5001379;28;20058;-77
2022/07/24 01:52:33;;;;;;;6.55;5.35;;;16.50;99.90;;;;;;5033596;28;20053;-77
2022/07/24 01:54:58;;;;;;;8.65;5.65;;;16.50;99.90;;;;;;5034715;28;20053;-77
2022/07/24 01:57:24;;;;;;;8.48;5.25;;;16.20;99.90;;;;;;5034396;28;20045;-77
2022/07/24 01:59:49;;;;;;;8.40;5.60;;;16.50;99.90;;;;;;5017615;28;20447;-77
2022/07/24 02:02:15;;;;;;;8.50;5.93;;;16.70;99.90;;;;;;5000930;28;20053;-77
2022/07/24 02:04:41;;;;;;;5.97;5.38;;;;;;;;;;5033814;28;20495;-77
2022/07/24 02:07:08;;;;;;;9.77;6.13;;;16.40;99.90;;;;;;5016490;28;20097;-78
2022/07/24 02:09:33;;;;;;;8.55;5.72;;;16.40;99.90;;;;;;5017199;28;20379;-77
2022/07/24 02:11:59;;;;;;;9.57;6.35;;;16.30;99.90;;;;;;5034384;28;20124;-77
2022/07/24 02:14:24;;;;;;;8.20;6.22;;;16.40;99.90;;;;;;5034845;28;20080;-77
2022/07/24 02:16:50;;;;;;;7.43;5.60;;;16.40;99.90;;;;;;5016801;28;20088;-77
2022/07/24 02:19:16;;;;;;;8.40;6.10;;;16.30;99.90;;;;;;5034683;28;20096;-77
2022/07/24 02:21:41;;;;;;;8.35;6.38;;;16.40;99.90;;;;;;5034638;28;20050;-77
2022/07/24 02:24:07;;;;;;;9.90;6.03;;;16.30;99.90;;;;;;5015865;28;20049;-77
2022/07/24 02:26:33;;;;;;;10.18;5.68;;;16.20;99.90;;;;;;5016630;28;20061;-77
2022/07/24 02:28:58;;;;;;;9.70;5.78;;;16.70;99.90;;;;;;5034694;28;20369;-77
2022/07/24 02:31:27;;;;;;;10.02;5.93;;;15.50;99.90;;;;;;5033886;28;20439;-77
2022/07/24 02:33:53;;;;;;;6.88;5.80;;;16.10;99.90;;;;;;5034460;28;20042;-77
2022/07/24 02:36:18;;;;;;;8.32;6.18;;;16.30;99.90;;;;;;5016262;28;20132;-77
2022/07/24 02:38:44;;;;;;;7.60;5.82;;;16.50;99.90;;;;;;5015821;28;20085;-77
2022/07/24 02:41:10;;;;;;;10.23;5.80;;;16.10;99.90;;;;;;5016102;28;20115;-77
2022/07/24 02:43:35;;;;;;;9.32;5.95;;;16.10;99.90;;;;;;5033769;28;20049;-77
2022/07/24 02:46:04;;;;;;;9.25;6.25;;;15.90;99.90;;;;;;5033677;28;20053;-77
2022/07/24 02:48:29;;;;;;;8.40;6.00;;;15.70;99.90;;;;;;5016282;28;20055;-77
2022/07/24 02:50:55;;;;;;;9.98;5.90;;;16.20;99.90;;;;;;5016287;28;20444;-77
2022/07/24 02:53:20;;;;;;;7.70;6.10;;;16.10;99.90;;;;;;5033716;28;20057;-77
2022/07/24 02:55:46;;;;;;;7.60;6.00;;;16.10;99.90;;;;;;5016521;28;20147;-77
2022/07/24 02:58:12;;;;;;;9.15;6.07;;;18.80;99.90;;;;;;5033719;28;20063;-77
2022/07/24 03:00:37;;;;;;;8.38;5.93;;;18.40;99.90;;;;;;5033938;28;20056;-77
2022/07/24 03:03:04;;;;;;;10.15;6.40;;;16.00;99.90;;;;;;5033572;28;20068;-77
2022/07/24 03:05:29;;;;;;;10.90;6.05;;;16.10;99.90;;;;;;4999512;28;20127;-77
2022/07/24 03:07:55;;;;;;;7.47;6.18;;;16.00;99.90;;;;;;4999197;28;20097;-77
2022/07/24 03:10:21;;;;;;;9.07;6.38;;;18.20;99.90;;;;;;4999574;28;20052;-77
2022/07/24 03:12:46;;;;;;;7.88;6.50;;;16.30;99.90;;;;;;5033370;28;20054;-77
2022/07/24 03:15:13;;;;;;;7.82;6.15;;;16.40;99.90;;;;;;5033929;28;20531;-77
2022/07/24 03:17:39;;;;;;;8.85;6.13;;;;;;;;;;5032990;28;20108;-77
2022/07/24 03:20:06;;;;;;;8.23;5.95;;;16.00;99.90;;;;;;5032368;28;20049;-77
2022/07/24 03:22:31;;;;;;;7.25;6.10;;;16.00;99.90;;;;;;5033899;28;20095;-77
2022/07/24 03:24:57;;;;;;;8.80;6.20;;;16.00;99.90;;;;;;5033563;28;20500;-77
2022/07/24 03:27:22;;;;;;;7.45;6.18;;;15.90;99.90;;;;;;5033357;28;20049;-77
2022/07/24 03:29:52;;;;;;;9.85;6.57;;;;;;;;;;5033130;28;20057;-77
2022/07/24 03:32:17;;;;;;;7.90;6.00;;;16.20;99.90;;;;;;5015929;28;20489;-77
2022/07/24 03:34:43;;;;;;;8.45;5.65;;;;;;;;;;5016027;28;20060;-77
2022/07/24 03:37:09;;;;;;;9.23;6.13;;;16.00;99.90;;;;;;5015245;28;20059;-77
2022/07/24 03:39:34;;;;;;;7.35;5.90;;;16.00;99.90;;;;;;5033439;28;20124;-77
2022/07/24 03:42:00;;;;;;;9.65;6.28;;;15.50;99.90;;;;;;5033777;28;20054;-77
2022/07/24 03:44:26;;;;;;;8.07;6.72;;;15.90;99.90;;;;;;5015350;28;20408;-78
2022/07/24 03:46:51;;;;;;;8.15;6.28;;;17.90;99.90;;;;;;5033164;28;20041;-77
2022/07/24 03:49:17;;;;;;;10.45;6.50;;;15.90;99.90;;;;;;5015186;28;20550;-77
2022/07/24 03:51:42;;;;;;;10.05;6.40;;;16.00;99.90;;;;;;5015329;28;20050;-77
2022/07/24 03:54:08;;;;;;;9.85;6.60;;;;;;;;;;5033519;28;20056;-77
2022/07/24 03:56:35;;;;;;;7.03;6.32;;;15.90;99.90;;;;;;5015558;28;20446;-77
2022/07/24 03:59:01;;;;;;;8.43;7.00;;;14.70;99.90;;;;;;5015274;28;20053;-77
2022/07/24 04:01:27;;;;;;;9.10;6.05;;;;;;;;;;5015122;28;20050;-77
2022/07/24 04:03:53;;;;;;;8.68;6.22;;;16.00;99.90;;;;;;5031281;28;20049;-77
2022/07/24 04:06:18;;;;;;;10.63;6.40;;;16.20;99.90;;;;;;5032926;28;20092;-77
2022/07/24 04:08:47;;;;;;;8.02;6.60;;;;;;;;;;5015042;28;20054;-77
2022/07/24 04:11:12;;;;;;;10.02;6.60;;;16.40;99.90;;;;;;5031865;28;20061;-77
2022/07/24 04:13:38;;;;;;;9.93;6.78;;;16.40;99.90;;;;;;5032970;28;20060;-77
2022/07/24 04:16:04;;;;;;;7.35;6.40;;;16.50;99.90;;;;;;5014913;28;20061;-77
2022/07/24 04:18:30;;;;;;;8.02;6.35;;;16.30;99.90;;;;;;5014219;28;20136;-77
2022/07/24 04:20:58;;;;;;;7.10;6.18;;;16.30;99.90;;;;;;5032197;28;20088;-77
2022/07/24 04:23:25;;;;;;;8.73;6.63;;;16.30;99.90;;;;;;5032984;28;20050;-77
2022/07/24 04:25:51;;;;;;;8.68;6.43;;;16.40;99.90;;;;;;4998061;28;20099;-77
2022/07/24 04:28:17;;;;;;;8.40;6.03;;;18.10;99.90;;;;;;5032641;28;20445;-77
2022/07/24 04:30:46;;;;;;;7.50;6.18;;;;;;;;;;5018651;28;20045;-77
2022/07/24 04:33:11;;;;;;;9.57;6.22;;;16.50;99.90;;;;;;5018329;28;20106;-77
2022/07/24 04:35:37;;;;;;;7.05;6.13;;;16.50;99.90;;;;;;5002509;28;20484;-77
2022/07/24 04:38:02;;;;;;;7.90;6.13;;;16.50;99.90;;;;;;5018333;28;20049;-77
2022/07/24 04:40:28;;;;;;;7.93;6.15;;;16.40;99.90;;;;;;5018406;28;20049;-77
2022/07/24 04:42:57;;;;;;;7.95;6.45;;;16.70;99.90;;;;;;5018335;28;20046;-77
2022/07/24 04:45:22;;;;;;;7.10;6.40;;;17.00;99.90;;;;;;5035603;28;20152;-77
2022/07/24 04:47:48;;;;;;;7.40;6.10;;;;;;;;;;5001862;28;20141;-78
2022/07/24 04:50:14;;;;;;;7.32;5.88;;;;;;;;;;5018222;28;20064;-77
2022/07/24 04:52:41;;;;;;;7.90;6.20;;;16.40;99.90;;;;;;5034392;28;20045;-77
2022/07/24 04:55:07;;;;;;;7.80;5.97;;;16.50;99.90;;;;;;5001839;28;20542;-78
2022/07/24 04:57:32;;;;;;;7.35;5.90;;;16.90;99.90;;;;;;5002060;28;20423;-77
2022/07/24 04:59:58;;;;;;;8.07;5.88;;;17.10;99.90;;;;;;5035889;28;20049;-77
2022/07/24 05:02:24;;;;;;;9.48;5.78;;;17.00;99.90;;;;;;5035038;28;20579;-78
2022/07/24 05:04:52;;;;;;;8.50;6.00;;;17.80;99.90;;;;;;5018444;28;20072;-77
2022/07/24 05:07:18;;;;;;;6.90;5.30;;;20.80;99.90;;;;;;5017317;28;20053;-78
2022/07/24 05:09:43;;;;;;;6.43;5.38;;;19.30;99.90;;;;;;5001389;28;20052;-77
2022/07/24 05:12:12;;;;;;;8.60;5.20;;;20.30;99.90;;;;;;5017592;28;20416;-78
2022/07/24 05:14:38;;;;;;;6.78;5.25;;;20.60;99.90;;;;;;5017472;28;20053;-78
2022/07/24 05:17:04;;;;;;;7.30;5.22;;;20.80;99.90;;;;;;5017618;28;20183;-78
2022/07/24 05:19:30;;;;;;;9.93;4.93;;;21.80;99.90;;;;;;5035756;28;20099;-78
2022/07/24 05:21:55;;;;;;;6.47;4.93;;;20.80;99.90;;;;;;5001262;28;20136;-78
2022/07/24 05:24:21;;;;;;;6.80;5.03;;;21.20;99.90;;;;;;5035273;28;20128;-78
2022/07/24 05:26:47;;;;;;;6.90;4.70;;;21.20;99.90;;;;;;5017768;28;20065;-78
2022/07/24 05:29:12;;;;;;;6.18;4.95;;;21.50;99.90;;;;;;5018088;28;20049;-78
2022/07/24 05:31:38;;;;;;;8.25;5.18;;;21.10;99.90;;;;;;5017775;28;20049;-78
2022/07/24 05:34:06;;;;;;;6.18;4.63;;;22.80;99.90;;;;;;5035358;28;20053;-78
2022/07/24 05:36:31;;;;;;;6.55;5.20;;;20.80;99.90;;;;;;5035076;28;20052;-78
2022/07/24 05:38:57;;;;;;;8.23;5.18;;;23.30;99.90;;;;;;5017898;28;20129;-78
2022/07/24 05:41:23;;;;;;;9.95;5.32;;;22.50;99.90;;;;;;5000008;28;20507;-78
2022/07/24 05:43:48;;;;;;;5.30;4.47;;;22.80;99.90;;;;;;5017662;28;20053;-78
2022/07/24 05:46:14;;;;;;;8.63;4.65;;;24.00;99.90;;;;;;5017359;28;20061;-78
2022/07/24 05:48:39;;;;;;;5.22;4.72;;;24.50;99.90;;;;;;5016878;28;20415;-78
2022/07/24 05:51:06;;;;;;;8.05;5.10;;;25.00;99.90;;;;;;5000896;28;20471;-78
2022/07/24 05:53:32;;;;;;;6.85;4.93;;;25.60;99.90;;;;;;5017711;28;20376;-78
2022/07/24 05:55:57;;;;;;;6.18;4.70;;;25.50;96.70;;;;;;5035477;28;20075;-78
2022/07/24 05:58:24;;;;;;;6.65;4.75;;;;;;;;;;5035226;28;20045;-78
2022/07/24 06:00:49;;;;;;;5.82;4.75;;;26.30;98.00;;;;;;5016911;28;20057;-78
2022/07/24 06:03:15;;;;;;;6.20;4.85;;;26.40;93.10;;;;;;5034807;28;20055;-78
2022/07/24 06:05:41;;;;;;;6.85;4.60;;;27.20;90.80;;;;;;5016702;28;20507;-78
2022/07/24 06:08:06;;;;;;;8.07;4.95;;;27.80;85.20;;;;;;5034433;28;20079;-78
2022/07/24 06:10:33;;;;;;;8.63;4.80;;;28.20;82.50;;;;;;5000539;28;20049;-79
2022/07/24 06:12:59;;;;;;;7.22;4.95;;;;;;;;;;5016683;28;20049;-77
2022/07/24 06:15:24;;;;;;;6.18;4.80;;;28.90;75.10;;;;;;5016587;28;20064;-77
2022/07/24 06:17:50;;;;;;;8.77;5.15;;;29.10;72.70;;;;;;5034292;28;20471;-76
2022/07/24 06:20:16;;;;;;;6.28;4.97;;;29.60;69.80;;;;;;5034582;28;20049;-77
2022/07/24 06:22:43;;;;;;;7.18;5.13;;;30.20;66.60;;;;;;5034399;28;20045;-75
2022/07/24 06:25:09;;;;;;;8.15;5.30;;;30.80;63.80;;;;;;5015925;28;20049;-75
2022/07/24 06:27:42;;;;;;;9.95;5.10;;;31.20;61.70;;;;;;5017095;28;20107;-75
2022/07/24 06:30:21;;;;;;;9.27;5.25;;;31.70;58.50;;;;;;5016661;28;20096;-78
2022/07/24 06:32:47;;;;;;;9.43;5.30;;;31.70;57.50;;;;;;5000015;28;20458;-75
2022/07/24 06:35:14;;;;;;;6.55;5.43;;;31.70;63.30;;;;;;5034050;28;20133;-77
2022/07/24 06:37:40;;;;;;;8.00;5.35;;;32.40;56.00;;;;;;5034098;28;20054;-76
2022/07/24 06:40:06;;;;;;;10.55;5.15;;;32.80;55.40;;;;;;5034270;28;20049;-76
2022/07/24 06:42:32;;;;;;;8.85;5.50;;;33.10;60.40;;;;;;5000243;28;20049;-76
2022/07/24 06:44:59;;;;;;;11.20;5.47;;;33.30;53.70;;;;;;5016687;28;20049;-75
2022/07/24 06:47:26;;;;;;;12.07;5.90;;;34.70;54.00;;;;;;5016286;28;20137;-75
2022/07/24 06:49:52;;;;;;;9.77;6.57;;;33.70;52.80;;;;;;5015929;28;20057;-74
2022/07/24 06:52:18;;;;;;;9.32;6.70;;;33.70;51.80;;;;;;5015866;28;20088;-75
2022/07/24 06:54:44;;;;;;;12.40;7.03;;;33.90;50.90;;;;;;5015940;28;20085;-75
2022/07/24 06:57:11;;;;;;;12.68;7.40;;;34.50;56.60;;;;;;5016859;28;20076;-75
2022/07/24 06:59:36;;;;;;;11.23;7.40;;;34.20;49.90;;;;;;5033824;28;20080;-75
2022/07/24 07:02:02;;;;;;;12.80;7.88;;;34.00;57.30;;;;;;5015940;28;20045;-75
2022/07/24 07:04:28;;;;;;;9.98;7.40;;;34.00;49.30;;;;;;5032982;28;20053;-75
2022/07/24 07:06:53;;;;;;;12.32;7.75;;;33.60;57.20;;;;;;5013031;28;20115;-74
2022/07/24 07:09:19;;;;;;;12.35;7.63;;;33.60;49.90;;;;;;5006922;28;20053;-75
2022/07/24 07:11:44;;;;;;;11.02;7.60;;;33.90;49.50;;;;;;5030656;28;20084;-74
2022/07/24 07:14:14;;;;;;;12.02;8.10;;;34.00;49.30;;;;;;5033279;28;20057;-74
2022/07/24 07:16:40;;;;;;;15.57;7.97;;;33.50;56.60;;;;;;5033768;28;20084;-74
2022/07/24 07:19:06;;;;;;;10.52;7.90;;;33.90;48.80;;;;;;5033482;28;20530;-74
2022/07/24 07:21:31;;;;;;;14.20;8.35;;;33.90;49.60;;;;;;5005015;28;20058;-75
2022/07/24 07:23:57;;;;;;;15.73;8.68;;;33.70;50.20;;;;;;5016979;28;20049;-74
2022/07/24 07:26:23;;;;;;;12.93;8.05;;;33.20;57.10;;;;;;5032559;28;20046;-75
2022/07/24 07:28:48;;;;;;;13.27;8.52;;;32.50;57.90;;;;;;4997161;28;20463;-75
2022/07/24 07:31:14;;;;;;;11.15;8.68;;;33.10;52.00;;;;;;4998350;28;20192;-75
2022/07/24 07:33:40;;;;;;;11.48;8.73;;;32.90;52.60;;;;;;5032565;28;20045;-75
2022/07/24 07:36:06;;;;;;;13.55;8.88;;;32.50;53.50;;;;;;4998001;28;20132;-75
2022/07/24 07:38:32;;;;;;;14.43;9.43;;;32.20;54.20;;;;;;5032284;28;20053;-74
2022/07/24 07:40:57;;;;;;;13.70;9.25;;;31.70;62.80;;;;;;5032140;28;20128;-75
2022/07/24 07:43:23;;;;;;;22.02;9.48;;;31.70;55.40;;;;;;5032421;28;20124;-75
2022/07/24 07:45:49;;;;;;;16.65;8.93;;;31.50;56.40;;;;;;5014420;28;20108;-74
2022/07/24 07:48:16;;;;;;;12.93;8.95;;;31.30;56.20;;;;;;4998007;28;20068;-75
2022/07/24 07:50:41;;;;;;;14.63;8.85;;;31.00;56.70;;;;;;5032613;28;20057;-74
2022/07/24 07:53:08;;;;;;;12.65;9.25;;;31.10;58.00;;;;;;5018376;28;20499;-75
2022/07/24 07:55:33;;;;;;;15.90;9.65;;;30.90;57.00;;;;;;5016295;28;20626;-75
2022/07/24 07:58:00;;;;;;;13.07;9.10;;;30.90;57.30;;;;;;5032808;28;20055;-74
2022/07/24 08:00:28;;;;;;;15.95;9.02;;;30.70;57.40;;;;;;5014583;28;20523;-75
2022/07/24 08:02:55;;;;;;;13.52;9.52;;;;;;;;;;5013960;28;20140;-75
2022/07/24 08:05:20;;;;;;;21.65;9.23;;;30.00;61.50;;;;;;5016577;28;20103;-75
2022/07/24 08:07:46;;;;;;;11.77;9.70;;;30.90;62.80;;;;;;4999021;28;20089;-74
2022/07/24 08:10:11;;;;;;;12.38;9.13;;;30.90;58.30;;;;;;5015652;28;20077;-75
2022/07/24 08:12:38;;;;;;;13.80;9.52;;;31.00;58.70;;;;;;5016151;28;20050;-75
2022/07/24 08:15:04;;;;;;;15.27;10.55;;;30.90;58.70;;;;;;5016506;28;20388;-75
2022/07/24 08:17:30;;;;;;;12.73;9.98;;;30.40;64.80;;;;;;5009337;28;20053;-74
2022/07/24 08:19:56;;;;;;;18.05;10.55;;;;;;;;;;5017746;28;20096;-75
2022/07/24 08:22:21;;;;;;;13.30;9.70;;;30.60;63.20;;;;;;5017261;28;20045;-75
2022/07/24 08:24:47;;;;;;;13.98;9.57;;;30.70;64.30;;;;;;5036142;28;20053;-74
2022/07/24 08:27:12;;;;;;;15.23;11.00;;;30.50;60.00;;;;;;5035370;28;20050;-75
2022/07/24 08:29:38;;;;;;;14.93;9.88;;;30.40;59.60;;;;;;5035254;28;20508;-74
2022/07/24 08:32:04;;;;;;;13.68;9.73;;;30.30;59.80;;;;;;5036654;28;20057;-74
2022/07/24 08:34:30;;;;;;;16.85;10.18;;;30.80;60.60;;;;;;5036189;28;20054;-75
2022/07/24 08:36:55;;;;;;;13.68;10.40;;;30.30;59.80;;;;;;5036305;28;20384;-74
2022/07/24 08:39:21;;;;;;;14.70;9.60;;;30.10;66.90;;;;;;5037682;28;20472;-75
2022/07/24 08:41:47;;;;;;;15.02;9.10;;;29.70;66.40;;;;;;5019570;28;20072;-75
2022/07/24 08:44:12;;;;;;;12.60;8.88;;;30.20;60.70;;;;;;5036661;28;20045;-74
2022/07/24 08:46:40;;;;;;;10.95;8.32;;;30.10;60.30;;;;;;5018040;28;20057;-75
2022/07/24 08:49:09;;;;;;;15.82;7.60;;;30.10;59.90;;;;;;5018401;28;20057;-75
2022/07/24 08:51:38;;;;;;;16.05;7.40;;;30.20;59.60;;;;;;5036053;28;20072;-75
2022/07/24 08:54:04;;;;;;;14.15;7.30;;;30.70;59.00;;;;;;5036586;28;20045;-74
2022/07/24 08:56:30;;;;;;;9.63;6.90;;;30.20;58.70;;;;;;5018447;28;20042;-75
2022/07/24 08:58:55;;;;;;;12.05;5.82;;;30.20;64.50;;;;;;5017576;28;20103;-74
2022/07/24 09:01:22;;;;;;;8.30;5.72;;;30.20;58.70;;;;;;5018126;28;20054;-75
2022/07/24 09:03:48;;;;;;;11.45;5.97;;;30.20;58.40;;;;;;5035871;28;20128;-76
2022/07/24 09:06:14;;;;;;;8.52;5.65;;;30.00;58.20;;;;;;5018173;28;20125;-76
2022/07/24 09:08:59;;;;;;;13.10;5.25;;;29.90;57.50;;;;;;5017867;28;20053;-76
2022/07/24 09:11:24;;;;;;;10.38;5.13;;;29.70;57.40;;;;;;5018612;28;20439;-77
2022/07/24 09:16:37;;;;;;;7.75;4.03;;;29.80;57.30;;;;;;5016785;28;20057;-77
2022/07/24 09:19:07;;;;;;;9.07;4.50;;;30.20;57.80;;;;;;5017464;28;20095;-76
2022/07/24 09:21:38;;;;;;;9.20;4.68;;;29.90;57.40;;;;;;5001399;28;20060;-77
2022/07/24 09:24:22;;;;;;;8.68;4.20;;;30.00;56.80;;;;;;5034980;28;20588;-79
2022/07/24 09:26:53;;;;;;;8.07;4.20;;;30.00;65.00;;;;;;5017246;28;20188;-77
2022/07/24 09:29:25;;;;;;;5.57;3.95;;;30.00;57.80;;;;;;5034975;28;20057;-77
2022/07/24 09:31:58;;;;;;;8.90;3.60;;;30.10;57.30;;;;;;5001320;28;20049;-76
2022/07/24 09:34:25;;;;;;;4.93;3.38;;;30.10;56.80;;;;;;5035928;28;20073;-76
2022/07/24 09:36:57;;;;;;;6.30;3.60;;;29.90;57.10;;;;;;5037748;28;20065;-76
2022/07/24 09:39:27;;;;;;;5.22;3.35;;;29.50;62.60;;;;;;5017934;28;20483;-77
2022/07/24 09:41:57;;;;;;;5.07;3.25;;;29.50;56.50;;;;;;5016345;28;20054;-76
2022/07/24 09:44:25;;;;;;;4.85;3.45;;;29.50;57.70;;;;;;5000931;28;20057;-76
2022/07/24 09:47:00;;;;;;;6.35;3.13;;;29.50;57.80;;;;;;5001300;28;20057;-76
2022/07/24 09:49:27;;;;;;;4.68;2.70;;;29.70;56.70;;;;;;5001097;28;20054;-76
2022/07/24 09:52:12;;;;;;;3.58;2.70;;;29.70;57.10;;;;;;5035295;28;20072;-75
2022/07/24 09:54:39;;;;;;;;;;;29.80;57.70;;;;;;5034986;28;20114;-77
2022/07/24 09:57:28;;;;;;;3.15;2.50;;;30.20;57.20;;;;;;5035098;28;19928;-78
2022/07/24 09:59:55;;;;;;;3.20;2.30;;;29.90;56.90;;;;;;5001109;28;20499;-78
2022/07/24 10:02:24;;;;;;;3.67;2.40;;;29.80;56.30;;;;;;5034430;28;20046;-78
2022/07/24 10:04:52;;;;;;;10.77;2.75;;;29.70;55.70;;;;;;4999868;28;20062;-79
2022/07/24 10:07:20;;;;;;;3.42;2.47;;;29.60;56.20;;;;;;5000765;28;20076;-78
2022/07/24 10:09:48;;;;;;;2.95;2.50;;;29.50;56.10;;;;;;5034823;28;20050;-78
2022/07/24 10:12:17;;;;;;;5.50;2.40;;;29.40;56.30;;;;;;5035073;28;20057;-79
2022/07/24 10:14:44;;;;;;;5.68;2.58;;;29.30;57.00;;;;;;5034767;28;20057;-78
2022/07/24 10:17:12;;;;;;;3.92;2.47;;;29.30;57.10;;;;;;5022363;28;20056;-78
2022/07/24 10:19:50;;;;;;;6.18;2.50;;;29.30;56.90;;;;;;5014432;28;20045;-78
2022/07/24 10:22:21;;;;;;;6.22;2.90;;;29.30;56.40;;;;;;5020598;28;20061;-79
2022/07/24 10:24:57;;;;;;;3.00;2.60;;;29.20;57.10;;;;;;5034663;28;20183;-78
2022/07/24 10:27:32;;;;;;;3.80;2.55;;;29.30;57.00;;;;;;5016859;28;20054;-77
2022/07/24 10:30:00;;;;;;;8.60;3.03;;;28.50;61.60;;;;;;5015939;28;20506;-78
2022/07/24 10:32:27;;;;;;;4.28;2.75;;;29.40;57.30;;;;;;5016431;28;20068;-79
2022/07/24 10:35:17;;;;;;;5.80;2.60;;;29.30;57.90;;;;;;5016499;28;20054;-79
2022/07/24 10:38:08;;;;;;;5.53;2.90;;;29.60;57.50;;;;;;5016700;28;20049;-79
2022/07/24 10:40:50;;;;;;;8.80;3.10;;;29.60;59.20;;;;;;5016796;28;20071;-79
2022/07/24 10:43:18;;;;;;;5.82;2.53;;;29.70;58.10;;;;;;5000679;28;20115;-80
2022/07/24 10:45:56;;;;;;;4.95;2.47;;;29.70;58.30;;;;;;5016276;28;20053;-80
2022/07/24 10:48:27;;;;;;;4.72;2.60;;;29.90;58.40;;;;;;4999594;28;20061;-78
2022/07/24 10:51:09;;;;;;;6.85;2.53;;;29.90;57.70;;;;;;5034512;28;20132;-79
2022/07/24 10:53:38;;;;;;;5.13;2.28;;;29.90;56.70;;;;;;5016893;28;20049;-79
2022/07/24 10:56:24;;;;;;;2.85;2.35;;;30.20;62.60;;;;;;5033741;28;20637;-78
2022/07/24 10:58:57;;;;;;;2.95;2.30;;;29.90;56.70;;;;;;5034378;28;20063;-77
2022/07/24 11:01:42;;;;;;;3.28;2.28;;;29.90;57.00;;;;;;5017639;28;20041;-77
2022/07/24 11:04:22;;;;;;;;;;;30.00;56.50;;;;;;5035534;28;20100;-78
2022/07/24 11:06:55;;;;;;;2.90;2.33;;;29.90;57.10;;;;;;5035270;28;19921;-78
2022/07/24 11:09:26;;;;;;;2.53;2.20;;;30.00;57.60;;;;;;5033671;28;20053;-78
2022/07/24 11:11:51;;;;;;;4.43;2.20;;;30.10;57.50;;;;;;5015634;28;20056;-77
2022/07/24 11:14:47;;;;;;;3.38;2.28;;;30.10;57.10;;;;;;5033622;28;20069;-77
2022/07/24 11:17:35;;;;;;;2.90;2.40;;;30.00;56.10;;;;;;5015084;28;20507;-78
2022/07/24 11:20:02;;;;;;;2.80;2.20;;;30.00;61.60;;;;;;4997083;28;20057;-79
2022/07/24 11:22:39;;;;;;;3.78;2.10;;;29.90;56.60;;;;;;5013657;28;20442;-79
2022/07/24 11:25:07;;;;;;;4.70;2.30;;;30.00;56.30;;;;;;5013713;28;20053;-79
2022/07/24 11:27:43;;;;;;;2.80;2.10;;;30.00;57.80;;;;;;5013540;28;20049;-77
2022/07/24 11:30:11;;;;;;;3.10;2.40;;;29.90;57.10;;;;;;5013621;28;20046;-79
2022/07/24 11:32:39;;;;;;;4.82;2.15;;;29.80;62.80;;;;;;4996062;28;20060;-79
2022/07/24 11:35:06;;;;;;;5.43;2.40;;;30.00;62.40;;;;;;5013379;28;20053;-79
2022/07/24 11:37:34;;;;;;;3.60;2.30;;;29.90;57.70;;;;;;4995690;28;20522;-79
2022/07/24 11:40:00;;;;;;;2.95;2.30;;;31.00;57.80;;;;;;5015019;28;20168;-80
2022/07/24 11:42:26;;;;;;;2.88;2.35;;;30.00;57.20;;;;;;5000085;28;20092;-80
2022/07/24 11:44:51;;;;;;;2.92;2.35;;;30.30;61.30;;;;;;5018277;28;20061;-80
2022/07/24 11:47:19;;;;;;;3.85;2.47;;;30.30;61.30;;;;;;5000403;28;20096;-80
2022/07/24 11:49:53;;;;;;;3.13;2.47;;;30.60;56.70;;;;;;5000212;28;20050;-78
2022/07/24 11:52:37;;;;;;;2.65;2.30;;;30.40;56.70;;;;;;5000571;28;20058;-79
2022/07/24 11:55:05;;;;;;;5.05;2.60;;;30.50;56.10;;;;;;5018088;28;20112;-79
2022/07/24 11:57:33;;;;;;;3.35;2.40;;;31.40;57.10;;;;;;5000513;28;20132;-79
2022/07/24 11:59:59;;;;;;;6.32;2.50;;;30.40;55.50;;;;;;5000094;28;20054;-79
2022/07/24 12:02:26;;;;;;;4.22;2.40;;;30.40;56.70;;;;;;4999982;28;20373;-78
2022/07/24 12:04:52;;;;;;;3.35;2.38;;;30.50;56.00;;;;;;4999908;28;20061;-78
2022/07/24 12:07:23;;;;;;;4.00;2.38;;;30.40;56.80;;;;;;5000195;28;20418;-79
2022/07/24 12:09:51;;;;;;;3.90;2.40;;;30.40;56.10;;;;;;5000120;28;20670;-78
2022/07/24 12:12:28;;;;;;;3.85;2.38;;;31.60;56.70;;;;;;5016584;28;20484;-79
2022/07/24 12:15:07;;;;;;;4.93;2.70;;;30.60;55.50;;;;;;5016804;28;20448;-79
2022/07/24 12:17:51;;;;;;;2.60;2.25;;;30.60;55.20;;;;;;5017409;28;20157;-78
2022/07/24 12:20:20;;;;;;;5.25;2.40;;;30.70;56.10;;;;;;4983140;28;20062;-79
2022/07/24 12:22:47;;;;;;;4.88;2.50;;;30.60;54.70;;;;;;4999088;28;20427;-79
2022/07/24 12:25:14;;;;;;;3.22;2.50;;;30.70;54.60;;;;;;4998973;28;20050;-79
2022/07/24 12:27:42;;;;;;;4.13;2.47;;;30.80;54.10;;;;;;5016508;28;20056;-78
2022/07/24 12:30:21;;;;;;;5.10;2.47;;;30.80;54.20;;;;;;5016899;28;20507;-79
2022/07/24 12:32:58;;;;;;;4.00;2.65;;;30.70;53.70;;;;;;5017834;28;20054;-79
2022/07/24 12:35:25;;;;;;;3.90;2.63;;;30.70;53.90;;;;;;4999479;28;20053;-78
2022/07/24 12:37:52;;;;;;;7.13;2.70;;;30.80;58.20;;;;;;4999055;28;20133;-79
2022/07/24 12:40:33;;;;;;;3.83;2.60;;;30.90;54.70;;;;;;5017286;28;20056;-78
2022/07/24 12:43:09;;;;;;;3.35;2.50;;;31.00;54.10;;;;;;4998805;28;20062;-79
2022/07/24 12:45:35;;;;;;;3.65;2.50;;;31.30;54.00;;;;;;4998811;28;20046;-78
2022/07/24 12:48:21;;;;;;;6.00;2.65;;;31.20;53.90;;;;;;4982480;28;20100;-77
2022/07/24 12:51:00;;;;;;;5.85;2.75;;;31.20;54.30;;;;;;5000055;28;20054;-79
2022/07/24 12:53:28;;;;;;;2.83;2.50;;;31.30;53.90;;;;;;4999814;28;20125;-78
2022/07/24 12:56:06;;;;;;;4.70;2.60;;;31.40;54.00;;;;;;5016381;28;20060;-79